sensor_id;sensor_type;location;lat;lon;timestamp;pressure;altitude;pressure_sealevel;temperature;humidity
63554;BME280;49699;48.072;7.800;2023-03-04T00:00:14;100042.56;;;-0.29;84.00
63554;BME280;49699;48.072;7.800;2023-03-04T00:02:39;100047.69;;;-0.29;84.03
63554;BME280;49699;48.072;7.800;2023-03-04T00:05:04;100037.47;;;-0.29;83.95
63554;BME280;49699;48.072;7.800;2023-03-04T00:07:30;100040.00;;;-0.27;83.86
63554;BME280;49699;48.072;7.800;2023-03-04T00:09:55;100043.41;;;-0.28;84.10
63554;BME280;49699;48.072;7.800;2023-03-04T00:12:21;100049.38;;;-0.28;84.17
63554;BME280;49699;48.072;7.800;2023-03-04T00:14:46;100045.13;;;-0.32;83.67
63554;BME280;49699;48.072;7.800;2023-03-04T00:17:11;100046.00;;;-0.35;83.89
63554;BME280;49699;48.072;7.800;2023-03-04T00:19:37;100050.28;;;-0.38;83.81
63554;BME280;49699;48.072;7.800;2023-03-04T00:22:02;100052.00;;;-0.42;84.20
63554;BME280;49699;48.072;7.800;2023-03-04T00:24:28;100054.56;;;-0.42;84.29
63554;BME280;49699;48.072;7.800;2023-03-04T00:26:53;100045.19;;;-0.44;84.27
63554;BME280;49699;48.072;7.800;2023-03-04T00:29:18;100048.59;;;-0.47;84.27
63554;BME280;49699;48.072;7.800;2023-03-04T00:31:43;100050.31;;;-0.47;84.57
63554;BME280;49699;48.072;7.800;2023-03-04T00:34:09;100046.91;;;-0.48;84.59
63554;BME280;49699;48.072;7.800;2023-03-04T00:36:34;100058.84;;;-0.47;84.21
63554;BME280;49699;48.072;7.800;2023-03-04T00:38:59;100054.56;;;-0.46;84.56
63554;BME280;49699;48.072;7.800;2023-03-04T00:41:24;100053.72;;;-0.45;84.45
63554;BME280;49699;48.072;7.800;2023-03-04T00:43:50;100057.13;;;-0.49;84.51
63554;BME280;49699;48.072;7.800;2023-03-04T00:46:16;100063.97;;;-0.53;84.30
63554;BME280;49699;48.072;7.800;2023-03-04T00:48:41;100058.03;;;-0.55;84.62
63554;BME280;49699;48.072;7.800;2023-03-04T00:51:06;100057.19;;;-0.55;84.61
63554;BME280;49699;48.072;7.800;2023-03-04T00:53:32;100056.31;;;-0.56;84.72
63554;BME280;49699;48.072;7.800;2023-03-04T00:55:57;100063.13;;;-0.56;84.72
63554;BME280;49699;48.072;7.800;2023-03-04T00:58:22;100049.50;;;-0.58;84.59
63554;BME280;49699;48.072;7.800;2023-03-04T01:00:48;100051.22;;;-0.57;84.40
63554;BME280;49699;48.072;7.800;2023-03-04T01:03:13;100049.50;;;-0.58;84.34
63554;BME280;49699;48.072;7.800;2023-03-04T01:05:38;100051.22;;;-0.60;84.69
63554;BME280;49699;48.072;7.800;2023-03-04T01:08:04;100049.50;;;-0.61;84.66
63554;BME280;49699;48.072;7.800;2023-03-04T01:10:29;100051.22;;;-0.63;84.76
63554;BME280;49699;48.072;7.800;2023-03-04T01:12:54;100046.09;;;-0.66;84.70
63554;BME280;49699;48.072;7.800;2023-03-04T01:15:20;100043.56;;;-0.68;84.61
63554;BME280;49699;48.072;7.800;2023-03-04T01:17:45;100048.66;;;-0.68;84.89
63554;BME280;49699;48.072;7.800;2023-03-04T01:20:11;100041.84;;;-0.69;84.42
63554;BME280;49699;48.072;7.800;2023-03-04T01:22:36;100035.88;;;-0.70;84.80
63554;BME280;49699;48.072;7.800;2023-03-04T01:25:02;100046.97;;;-0.71;84.79
63554;BME280;49699;48.072;7.800;2023-03-04T01:27:27;100042.72;;;-0.73;84.50
63554;BME280;49699;48.072;7.800;2023-03-04T01:29:52;100036.78;;;-0.75;84.87
63554;BME280;49699;48.072;7.800;2023-03-04T01:32:18;100039.31;;;-0.78;84.79
63554;BME280;49699;48.072;7.800;2023-03-04T01:34:43;100035.06;;;-0.84;84.80
63554;BME280;49699;48.072;7.800;2023-03-04T01:37:08;100038.47;;;-0.89;84.63
63554;BME280;49699;48.072;7.800;2023-03-04T01:39:34;100041.06;;;-0.91;84.60
63554;BME280;49699;48.072;7.800;2023-03-04T01:41:59;100032.56;;;-0.94;85.16
63554;BME280;49699;48.072;7.800;2023-03-04T01:44:24;100032.56;;;-0.96;84.82
63554;BME280;49699;48.072;7.800;2023-03-04T01:46:51;100032.56;;;-0.97;85.00
63554;BME280;49699;48.072;7.800;2023-03-04T01:49:16;100030.84;;;-1.00;85.05
63554;BME280;49699;48.072;7.800;2023-03-04T01:51:46;100039.34;;;-1.01;84.73
63554;BME280;49699;48.072;7.800;2023-03-04T01:54:13;100034.25;;;-1.04;84.97
63554;BME280;49699;48.072;7.800;2023-03-04T01:56:39;100031.69;;;-1.04;84.87
63554;BME280;49699;48.072;7.800;2023-03-04T01:59:14;100021.47;;;-1.04;84.83
63554;BME280;49699;48.072;7.800;2023-03-04T02:01:44;100030.00;;;-1.07;85.00
63554;BME280;49699;48.072;7.800;2023-03-04T02:04:10;100029.16;;;-1.09;84.75
63554;BME280;49699;48.072;7.800;2023-03-04T02:06:36;100029.16;;;-1.15;84.99
63554;BME280;49699;48.072;7.800;2023-03-04T02:09:02;100018.09;;;-1.23;85.08
63554;BME280;49699;48.072;7.800;2023-03-04T02:11:28;100024.06;;;-1.30;84.96
63554;BME280;49699;48.072;7.800;2023-03-04T02:13:53;100023.22;;;-1.35;84.98
63554;BME280;49699;48.072;7.800;2023-03-04T02:16:19;100029.16;;;-1.39;85.33
63554;BME280;49699;48.072;7.800;2023-03-04T02:18:44;100028.34;;;-1.44;85.69
63554;BME280;49699;48.072;7.800;2023-03-04T02:21:12;100018.13;;;-1.44;85.56
63554;BME280;49699;48.072;7.800;2023-03-04T02:23:41;100020.66;;;-1.43;85.65
63554;BME280;49699;48.072;7.800;2023-03-04T02:28:33;100019.81;;;-1.46;85.38
63554;BME280;49699;48.072;7.800;2023-03-04T02:30:59;100018.13;;;-1.46;85.26
63554;BME280;49699;48.072;7.800;2023-03-04T02:33:25;100019.81;;;-1.45;85.65
63554;BME280;49699;48.072;7.800;2023-03-04T02:35:50;100021.53;;;-1.45;85.17
63554;BME280;49699;48.072;7.800;2023-03-04T02:38:16;100022.38;;;-1.45;85.08
63554;BME280;49699;48.072;7.800;2023-03-04T02:40:42;100029.19;;;-1.47;84.93
63554;BME280;49699;48.072;7.800;2023-03-04T02:43:10;100024.06;;;-1.50;85.12
63554;BME280;49699;48.072;7.800;2023-03-04T02:45:38;100019.81;;;-1.52;84.97
63554;BME280;49699;48.072;7.800;2023-03-04T02:48:05;100020.66;;;-1.52;85.18
63554;BME280;49699;48.072;7.800;2023-03-04T02:50:33;100030.03;;;-1.54;85.09
63554;BME280;49699;48.072;7.800;2023-03-04T02:52:58;100028.31;;;-1.58;85.05
63554;BME280;49699;48.072;7.800;2023-03-04T02:55:24;100025.78;;;-1.62;85.20
63554;BME280;49699;48.072;7.800;2023-03-04T02:57:49;100030.03;;;-1.66;85.67
63554;BME280;49699;48.072;7.800;2023-03-04T03:00:15;100022.38;;;-1.66;85.47
63554;BME280;49699;48.072;7.800;2023-03-04T03:02:41;100024.06;;;-1.65;85.31
63554;BME280;49699;48.072;7.800;2023-03-04T03:05:06;100021.50;;;-1.65;85.68
63554;BME280;49699;48.072;7.800;2023-03-04T03:07:32;100022.38;;;-1.64;85.15
63554;BME280;49699;48.072;7.800;2023-03-04T03:09:59;100021.50;;;-1.63;85.15
63554;BME280;49699;48.072;7.800;2023-03-04T03:12:24;100022.38;;;-1.64;85.28
63554;BME280;49699;48.072;7.800;2023-03-04T03:14:50;100021.50;;;-1.63;85.58
63554;BME280;49699;48.072;7.800;2023-03-04T03:17:18;100025.78;;;-1.64;85.41
63554;BME280;49699;48.072;7.800;2023-03-04T03:19:43;100027.47;;;-1.63;85.32
63554;BME280;49699;48.072;7.800;2023-03-04T03:22:09;100019.81;;;-1.66;85.11
63554;BME280;49699;48.072;7.800;2023-03-04T03:24:34;100025.75;;;-1.68;85.22
63554;BME280;49699;48.072;7.800;2023-03-04T03:26:59;100026.59;;;-1.69;85.41
63554;BME280;49699;48.072;7.800;2023-03-04T03:29:25;100020.66;;;-1.71;85.39
63554;BME280;49699;48.072;7.800;2023-03-04T03:31:50;100019.78;;;-1.72;85.48
63554;BME280;49699;48.072;7.800;2023-03-04T03:34:17;100018.09;;;-1.73;85.22
63554;BME280;49699;48.072;7.800;2023-03-04T03:36:42;100027.44;;;-1.73;85.41
63554;BME280;49699;48.072;7.800;2023-03-04T03:39:07;100017.22;;;-1.77;85.42
63554;BME280;49699;48.072;7.800;2023-03-04T03:41:32;100014.69;;;-1.80;85.26
63554;BME280;49699;48.072;7.800;2023-03-04T03:43:58;100018.09;;;-1.81;85.27
63554;BME280;49699;48.072;7.800;2023-03-04T03:46:23;100017.22;;;-1.84;85.17
63554;BME280;49699;48.072;7.800;2023-03-04T03:48:48;100026.56;;;-1.86;85.40
63554;BME280;49699;48.072;7.800;2023-03-04T03:51:14;100022.31;;;-1.89;84.97
63554;BME280;49699;48.072;7.800;2023-03-04T03:53:39;100027.41;;;-1.90;85.68
63554;BME280;49699;48.072;7.800;2023-03-04T03:56:04;100031.66;;;-1.92;85.34
63554;BME280;49699;48.072;7.800;2023-03-04T03:58:30;100037.59;;;-1.95;85.41
63554;BME280;49699;48.072;7.800;2023-03-04T04:00:55;100031.66;;;-1.98;85.74
63554;BME280;49699;48.072;7.800;2023-03-04T04:03:20;100037.59;;;-2.01;85.39
63554;BME280;49699;48.072;7.800;2023-03-04T04:05:46;100038.44;;;-2.02;85.57
63554;BME280;49699;48.072;7.800;2023-03-04T04:08:15;100035.91;;;-2.02;85.48
63554;BME280;49699;48.072;7.800;2023-03-04T04:10:41;100039.31;;;-2.01;85.40
63554;BME280;49699;48.072;7.800;2023-03-04T04:13:06;100043.53;;;-2.03;85.78
63554;BME280;49699;48.072;7.800;2023-03-04T04:15:31;100039.28;;;-2.04;85.23
63554;BME280;49699;48.072;7.800;2023-03-04T04:17:57;100046.09;;;-2.06;85.35
63554;BME280;49699;48.072;7.800;2023-03-04T04:20:22;100042.66;;;-2.10;85.72
63554;BME280;49699;48.072;7.800;2023-03-04T04:22:47;100033.28;;;-2.14;85.74
63554;BME280;49699;48.072;7.800;2023-03-04T04:25:13;100038.41;;;-2.16;85.50
63554;BME280;49699;48.072;7.800;2023-03-04T04:27:38;100040.97;;;-2.17;85.85
63554;BME280;49699;48.072;7.800;2023-03-04T04:30:03;100039.25;;;-2.20;85.43
63554;BME280;49699;48.072;7.800;2023-03-04T04:32:29;100031.59;;;-2.23;85.72
63554;BME280;49699;48.072;7.800;2023-03-04T04:34:54;100037.53;;;-2.24;85.93
63554;BME280;49699;48.072;7.800;2023-03-04T04:37:20;100050.28;;;-2.25;85.71
63554;BME280;49699;48.072;7.800;2023-03-04T04:39:45;100042.63;;;-2.27;86.05
63554;BME280;49699;48.072;7.800;2023-03-04T04:42:10;100042.63;;;-2.25;85.48
63554;BME280;49699;48.072;7.800;2023-03-04T04:44:36;100039.22;;;-2.24;85.60
63554;BME280;49699;48.072;7.800;2023-03-04T04:47:03;100044.34;;;-2.23;85.45
63554;BME280;49699;48.072;7.800;2023-03-04T04:49:30;100045.19;;;-2.22;85.55
63554;BME280;49699;48.072;7.800;2023-03-04T04:51:56;100052.84;;;-2.22;85.37
63554;BME280;49699;48.072;7.800;2023-03-04T04:54:21;100048.56;;;-2.23;85.30
63554;BME280;49699;48.072;7.800;2023-03-04T04:56:46;100051.13;;;-2.23;85.31
63554;BME280;49699;48.072;7.800;2023-03-04T04:59:12;100051.13;;;-2.25;85.38
63554;BME280;49699;48.072;7.800;2023-03-04T05:01:37;100046.84;;;-2.27;85.34
63554;BME280;49699;48.072;7.800;2023-03-04T05:04:02;100055.34;;;-2.28;85.48
63554;BME280;49699;48.072;7.800;2023-03-04T05:06:28;100054.50;;;-2.30;85.48
63554;BME280;49699;48.072;7.800;2023-03-04T05:08:53;100046.84;;;-2.35;85.77
63554;BME280;49699;48.072;7.800;2023-03-04T05:11:19;100049.34;;;-2.41;85.44
63554;BME280;49699;48.072;7.800;2023-03-04T05:13:45;100051.84;;;-2.50;85.41
63554;BME280;49699;48.072;7.800;2023-03-04T05:16:10;100054.38;;;-2.59;85.69
63554;BME280;49699;48.072;7.800;2023-03-04T05:18:35;100047.53;;;-2.66;85.61
63554;BME280;49699;48.072;7.800;2023-03-04T05:21:01;100050.91;;;-2.72;85.73
63554;BME280;49699;48.072;7.800;2023-03-04T05:23:28;100053.44;;;-2.76;85.84
63554;BME280;49699;48.072;7.800;2023-03-04T05:25:54;100050.81;;;-2.83;86.04
63554;BME280;49699;48.072;7.800;2023-03-04T05:28:19;100051.66;;;-2.88;86.34
63554;BME280;49699;48.072;7.800;2023-03-04T05:30:44;100052.47;;;-2.92;86.23
63554;BME280;49699;48.072;7.800;2023-03-04T05:33:10;100055.00;;;-2.94;86.53
63554;BME280;49699;48.072;7.800;2023-03-04T05:35:37;100053.31;;;-2.95;86.55
63554;BME280;49699;48.072;7.800;2023-03-04T05:38:03;100055.00;;;-2.97;86.35
63554;BME280;49699;48.072;7.800;2023-03-04T05:40:28;100062.63;;;-2.97;86.60
63554;BME280;49699;48.072;7.800;2023-03-04T05:42:53;100061.78;;;-2.97;86.47
63554;BME280;49699;48.072;7.800;2023-03-04T05:45:18;100066.84;;;-3.00;86.72
63554;BME280;49699;48.072;7.800;2023-03-04T05:47:44;100065.97;;;-3.02;86.31
63554;BME280;49699;48.072;7.800;2023-03-04T05:50:09;100066.81;;;-3.03;86.53
63554;BME280;49699;48.072;7.800;2023-03-04T05:52:35;100061.72;;;-3.03;86.58
63554;BME280;49699;48.072;7.800;2023-03-04T05:55:00;100060.88;;;-3.04;86.61
63554;BME280;49699;48.072;7.800;2023-03-04T05:57:25;100065.13;;;-3.01;86.28
63554;BME280;49699;48.072;7.800;2023-03-04T05:59:50;100063.44;;;-3.01;86.26
63554;BME280;49699;48.072;7.800;2023-03-04T06:02:16;100057.53;;;-2.98;86.23
63554;BME280;49699;48.072;7.800;2023-03-04T06:04:41;100055.00;;;-2.95;86.16
63554;BME280;49699;48.072;7.800;2023-03-04T06:07:06;100056.72;;;-2.93;86.04
63554;BME280;49699;48.072;7.800;2023-03-04T06:09:31;100058.44;;;-2.92;86.37
63554;BME280;49699;48.072;7.800;2023-03-04T06:11:57;100067.78;;;-2.91;85.95
63554;BME280;49699;48.072;7.800;2023-03-04T06:14:22;100080.53;;;-2.89;85.97
63554;BME280;49699;48.072;7.800;2023-03-04T06:16:47;100072.88;;;-2.86;85.99
63554;BME280;49699;48.072;7.800;2023-03-04T06:19:13;100075.44;;;-2.83;85.62
63554;BME280;49699;48.072;7.800;2023-03-04T06:21:38;100081.41;;;-2.80;85.67
63554;BME280;49699;48.072;7.800;2023-03-04T06:24:03;100083.13;;;-2.80;85.59
63554;BME280;49699;48.072;7.800;2023-03-04T06:26:28;100098.41;;;-2.78;85.62
63554;BME280;49699;48.072;7.800;2023-03-04T06:28:54;100093.31;;;-2.77;85.61
63554;BME280;49699;48.072;7.800;2023-03-04T06:31:21;100090.78;;;-2.77;85.44
63554;BME280;49699;48.072;7.800;2023-03-04T06:33:46;100101.00;;;-2.74;85.38
63554;BME280;49699;48.072;7.800;2023-03-04T06:36:11;100097.63;;;-2.73;84.96
63554;BME280;49699;48.072;7.800;2023-03-04T06:38:37;100095.09;;;-2.70;85.18
63554;BME280;49699;48.072;7.800;2023-03-04T06:41:08;100095.06;;;-2.67;84.99
63554;BME280;49699;48.072;7.800;2023-03-04T06:43:34;100103.59;;;-2.65;85.07
63554;BME280;49699;48.072;7.800;2023-03-04T06:46:00;100099.38;;;-2.61;84.71
63554;BME280;49699;48.072;7.800;2023-03-04T06:48:25;100105.34;;;-2.56;84.60
63554;BME280;49699;48.072;7.800;2023-03-04T06:50:51;100099.41;;;-2.51;84.34
63554;BME280;49699;48.072;7.800;2023-03-04T06:53:16;100102.00;;;-2.48;84.59
63554;BME280;49699;48.072;7.800;2023-03-04T06:55:41;100102.00;;;-2.45;84.36
63554;BME280;49699;48.072;7.800;2023-03-04T06:58:07;100111.38;;;-2.42;84.05
63554;BME280;49699;48.072;7.800;2023-03-04T07:00:32;100105.44;;;-2.39;84.20
63554;BME280;49699;48.072;7.800;2023-03-04T07:02:58;100108.88;;;-2.31;84.09
63554;BME280;49699;48.072;7.800;2023-03-04T07:05:23;100116.56;;;-2.22;83.53
63554;BME280;49699;48.072;7.800;2023-03-04T07:07:48;100120.00;;;-2.14;83.75
63554;BME280;49699;48.072;7.800;2023-03-04T07:10:15;100126.84;;;-2.07;83.65
63554;BME280;49699;48.072;7.800;2023-03-04T07:12:40;100121.78;;;-2.02;83.20
63554;BME280;49699;48.072;7.800;2023-03-04T07:15:05;100133.69;;;-1.95;83.08
63554;BME280;49699;48.072;7.800;2023-03-04T07:17:31;100130.34;;;-1.87;83.09
63554;BME280;49699;48.072;7.800;2023-03-04T07:19:56;100132.88;;;-1.79;82.61
63554;BME280;49699;48.072;7.800;2023-03-04T07:22:21;100128.69;;;-1.71;82.81
63554;BME280;49699;48.072;7.800;2023-03-04T07:24:46;100127.00;;;-1.61;82.27
63554;BME280;49699;48.072;7.800;2023-03-04T07:27:12;100124.47;;;-1.51;82.40
63554;BME280;49699;48.072;7.800;2023-03-04T07:29:37;100133.84;;;-1.42;81.88
63554;BME280;49699;48.072;7.800;2023-03-04T07:32:05;100142.38;;;-1.32;81.94
63554;BME280;49699;48.072;7.800;2023-03-04T07:34:31;100144.94;;;-1.23;81.37
63554;BME280;49699;48.072;7.800;2023-03-04T07:36:56;100141.53;;;-1.16;81.53
63554;BME280;49699;48.072;7.800;2023-03-04T07:39:21;100149.22;;;-1.09;81.28
63554;BME280;49699;48.072;7.800;2023-03-04T07:41:47;100147.50;;;-1.02;81.51
63554;BME280;49699;48.072;7.800;2023-03-04T07:44:12;100149.22;;;-0.93;81.18
63554;BME280;49699;48.072;7.800;2023-03-04T07:46:37;100149.22;;;-0.86;80.78
63554;BME280;49699;48.072;7.800;2023-03-04T07:49:03;100150.06;;;-0.78;81.08
63554;BME280;49699;48.072;7.800;2023-03-04T07:51:28;100151.78;;;-0.75;80.71
63554;BME280;49699;48.072;7.800;2023-03-04T07:53:58;100150.91;;;-0.71;80.78
63554;BME280;49699;48.072;7.800;2023-03-04T07:56:25;100147.50;;;-0.67;81.31
63554;BME280;49699;48.072;7.800;2023-03-04T07:58:50;100154.31;;;-0.61;81.07
63554;BME280;49699;48.072;7.800;2023-03-04T08:01:22;100162.84;;;-0.56;81.23
63554;BME280;49699;48.072;7.800;2023-03-04T08:03:48;100162.81;;;-0.53;81.28
63554;BME280;49699;48.072;7.800;2023-03-04T08:06:15;100162.81;;;-0.53;82.00
63554;BME280;49699;48.072;7.800;2023-03-04T08:08:40;100163.66;;;-0.53;82.53
63554;BME280;49699;48.072;7.800;2023-03-04T08:11:17;100161.97;;;-0.46;82.61
63554;BME280;49699;48.072;7.800;2023-03-04T08:13:42;100165.38;;;-0.37;82.34
63554;BME280;49699;48.072;7.800;2023-03-04T08:16:09;100162.78;;;-0.30;82.07
63554;BME280;49699;48.072;7.800;2023-03-04T08:18:36;100164.50;;;-0.22;81.96
63554;BME280;49699;48.072;7.800;2023-03-04T08:21:06;100165.31;;;-0.15;81.92
63554;BME280;49699;48.072;7.800;2023-03-04T08:23:32;100151.66;;;-0.08;81.97
63554;BME280;49699;48.072;7.800;2023-03-04T08:25:58;100151.66;;;-0.04;81.98
63554;BME280;49699;48.072;7.800;2023-03-04T08:28:23;100161.03;;;-0.01;82.17
63554;BME280;49699;48.072;7.800;2023-03-04T08:30:52;100165.25;;;0.03;82.19
63554;BME280;49699;48.072;7.800;2023-03-04T08:33:17;100162.69;;;0.09;82.22
63554;BME280;49699;48.072;7.800;2023-03-04T08:35:43;100162.69;;;0.12;82.10
63554;BME280;49699;48.072;7.800;2023-03-04T08:38:08;100158.41;;;0.14;82.27
63554;BME280;49699;48.072;7.800;2023-03-04T08:40:33;100165.22;;;0.17;81.93
63554;BME280;49699;48.072;7.800;2023-03-04T08:42:58;100170.31;;;0.21;81.90
63554;BME280;49699;48.072;7.800;2023-03-04T08:45:24;100172.88;;;0.21;82.35
63554;BME280;49699;48.072;7.800;2023-03-04T08:47:50;100169.50;;;0.18;82.29
63554;BME280;49699;48.072;7.800;2023-03-04T08:50:15;100169.50;;;0.12;82.68
63554;BME280;49699;48.072;7.800;2023-03-04T08:52:41;100174.63;;;0.06;82.79
63554;BME280;49699;48.072;7.800;2023-03-04T08:55:06;100173.78;;;0.07;82.91
63554;BME280;49699;48.072;7.800;2023-03-04T08:57:32;100178.03;;;0.14;82.82
63554;BME280;49699;48.072;7.800;2023-03-04T08:59:57;100187.38;;;0.19;82.78
63554;BME280;49699;48.072;7.800;2023-03-04T09:02:22;100182.25;;;0.25;82.47
63554;BME280;49699;48.072;7.800;2023-03-04T09:04:48;100185.66;;;0.29;82.40
63554;BME280;49699;48.072;7.800;2023-03-04T09:07:13;100188.19;;;0.33;82.31
63554;BME280;49699;48.072;7.800;2023-03-04T09:09:38;100186.44;;;0.40;82.01
63554;BME280;49699;48.072;7.800;2023-03-04T09:12:04;100187.28;;;0.45;82.08
63554;BME280;49699;48.072;7.800;2023-03-04T09:14:29;100194.94;;;0.51;81.88
63554;BME280;49699;48.072;7.800;2023-03-04T09:16:56;100190.66;;;0.53;81.67
63554;BME280;49699;48.072;7.800;2023-03-04T09:19:21;100188.91;;;0.57;81.29
63554;BME280;49699;48.072;7.800;2023-03-04T09:21:48;100192.31;;;0.59;81.32
63554;BME280;49699;48.072;7.800;2023-03-04T09:24:13;100190.63;;;0.59;81.34
63554;BME280;49699;48.072;7.800;2023-03-04T09:26:38;100186.31;;;0.66;81.41
63554;BME280;49699;48.072;7.800;2023-03-04T09:29:04;100178.56;;;0.75;81.02
63554;BME280;49699;48.072;7.800;2023-03-04T09:31:30;100182.81;;;0.82;80.71
63554;BME280;49699;48.072;7.800;2023-03-04T09:33:56;100181.06;;;0.87;80.62
63554;BME280;49699;48.072;7.800;2023-03-04T09:36:22;100182.78;;;0.88;80.63
63554;BME280;49699;48.072;7.800;2023-03-04T09:38:48;100181.88;;;0.94;80.39
63554;BME280;49699;48.072;7.800;2023-03-04T09:41:14;100183.56;;;0.98;80.30
63554;BME280;49699;48.072;7.800;2023-03-04T09:43:40;100177.56;;;1.00;80.19
63554;BME280;49699;48.072;7.800;2023-03-04T09:46:08;100190.38;;;0.99;80.07
63554;BME280;49699;48.072;7.800;2023-03-04T09:48:54;100184.44;;;0.92;80.18
63554;BME280;49699;48.072;7.800;2023-03-04T09:56:40;100183.69;;;0.78;80.61
63554;BME280;49699;48.072;7.800;2023-03-04T10:04:31;100185.25;;;1.02;80.22
63554;BME280;49699;48.072;7.800;2023-03-04T10:06:59;100185.09;;;1.20;79.86
63554;BME280;49699;48.072;7.800;2023-03-04T10:09:26;100183.31;;;1.30;79.14
63554;BME280;49699;48.072;7.800;2023-03-04T10:19:21;100181.41;;;1.50;78.23
63554;BME280;49699;48.072;7.800;2023-03-04T10:21:49;100182.22;;;1.60;78.22
63554;BME280;49699;48.072;7.800;2023-03-04T10:24:15;100172.72;;;1.66;77.78
63554;BME280;49699;48.072;7.800;2023-03-04T10:26:46;100169.25;;;1.70;77.79
63554;BME280;49699;48.072;7.800;2023-03-04T10:29:46;100172.66;;;1.74;77.55
63554;BME280;49699;48.072;7.800;2023-03-04T10:32:15;100177.78;;;1.74;77.40
63554;BME280;49699;48.072;7.800;2023-03-04T10:34:41;100170.84;;;1.81;77.31
63554;BME280;49699;48.072;7.800;2023-03-04T10:37:07;100163.09;;;1.88;77.25
63554;BME280;49699;48.072;7.800;2023-03-04T10:39:34;100167.28;;;1.97;76.78
63554;BME280;49699;48.072;7.800;2023-03-04T10:44:37;100167.81;;;2.23;76.05
63554;BME280;49699;48.072;7.800;2023-03-04T10:47:08;100165.03;;;2.38;75.73
63554;BME280;49699;48.072;7.800;2023-03-04T10:49:34;100160.69;;;2.47;75.45
63554;BME280;49699;48.072;7.800;2023-03-04T10:54:48;100160.38;;;2.68;74.83
63554;BME280;49699;48.072;7.800;2023-03-04T10:57:18;100162.75;;;2.82;74.20
63554;BME280;49699;48.072;7.800;2023-03-04T10:59:45;100153.94;;;2.98;74.04
63554;BME280;49699;48.072;7.800;2023-03-04T11:04:39;100157.06;;;3.17;73.41
63554;BME280;49699;48.072;7.800;2023-03-04T11:07:08;100156.25;;;3.14;73.14
63554;BME280;49699;48.072;7.800;2023-03-04T11:09:34;100146.78;;;3.17;73.19
63554;BME280;49699;48.072;7.800;2023-03-04T11:12:00;100153.47;;;3.27;73.34
63554;BME280;49699;48.072;7.800;2023-03-04T11:14:27;100146.47;;;3.35;72.98
63554;BME280;49699;48.072;7.800;2023-03-04T11:16:58;100146.41;;;3.39;72.79
63554;BME280;49699;48.072;7.800;2023-03-04T11:19:34;100141.06;;;3.50;72.29
63554;BME280;49699;48.072;7.800;2023-03-04T11:22:01;100143.44;;;3.61;71.99
63554;BME280;49699;48.072;7.800;2023-03-04T11:24:27;100137.34;;;3.66;71.86
63554;BME280;49699;48.072;7.800;2023-03-04T11:27:02;100139.91;;;3.66;71.58
63554;BME280;49699;48.072;7.800;2023-03-04T11:29:30;100133.78;;;3.73;71.57
63554;BME280;49699;48.072;7.800;2023-03-04T11:32:05;100127.47;;;3.88;71.17
63554;BME280;49699;48.072;7.800;2023-03-04T11:34:36;100116.59;;;4.17;70.16
63554;BME280;49699;48.072;7.800;2023-03-04T11:44:46;100103.00;;;5.21;66.96
63554;BME280;49699;48.072;7.800;2023-03-04T11:47:18;100103.47;;;5.37;66.23
63554;BME280;49699;48.072;7.800;2023-03-04T12:02:29;100057.88;;;6.57;62.59
63554;BME280;49699;48.072;7.800;2023-03-04T12:05:04;100060.91;;;6.70;62.30
63554;BME280;49699;48.072;7.800;2023-03-04T12:10:05;100054.16;;;6.92;61.85
63554;BME280;49699;48.072;7.800;2023-03-04T12:17:54;100035.88;;;7.21;60.71
63554;BME280;49699;48.072;7.800;2023-03-04T12:20:26;100026.88;;;7.33;60.39
63554;BME280;49699;48.072;7.800;2023-03-04T12:25:28;100024.56;;;7.49;60.26
63554;BME280;49699;48.072;7.800;2023-03-04T12:28:02;100009.47;;;7.60;60.29
63554;BME280;49699;48.072;7.800;2023-03-04T12:30:32;100007.00;;;7.80;59.85
63554;BME280;49699;48.072;7.800;2023-03-04T12:38:49;99993.38;;;8.20;58.21
63554;BME280;49699;48.072;7.800;2023-03-04T12:44:15;99986.44;;;8.21;58.40
63554;BME280;49699;48.072;7.800;2023-03-04T12:51:35;99974.03;;;8.51;57.41
63554;BME280;49699;48.072;7.800;2023-03-04T12:57:17;99969.75;;;8.92;56.80
63554;BME280;49699;48.072;7.800;2023-03-04T12:59:59;99961.59;;;8.99;56.43
63554;BME280;49699;48.072;7.800;2023-03-04T13:02:41;99948.13;;;9.12;55.68
63554;BME280;49699;48.072;7.800;2023-03-04T13:07:43;99944.88;;;9.46;53.59
63554;BME280;49699;48.072;7.800;2023-03-04T13:10:15;99942.03;;;9.50;53.20
63554;BME280;49699;48.072;7.800;2023-03-04T13:12:51;99945.47;;;9.32;51.29
63554;BME280;49699;48.072;7.800;2023-03-04T13:22:58;99925.31;;;8.98;49.84
63554;BME280;49699;48.072;7.800;2023-03-04T13:25:31;99930.75;;;8.93;50.05
63554;BME280;49699;48.072;7.800;2023-03-04T13:43:27;99920.50;;;9.48;49.02
63554;BME280;49699;48.072;7.800;2023-03-04T13:45:53;99914.41;;;9.49;49.16
63554;BME280;49699;48.072;7.800;2023-03-04T13:48:26;99918.13;;;9.62;48.22
63554;BME280;49699;48.072;7.800;2023-03-04T13:50:52;99908.25;;;9.69;47.94
63554;BME280;49699;48.072;7.800;2023-03-04T13:53:37;99909.94;;;9.70;47.65
63554;BME280;49699;48.072;7.800;2023-03-04T13:56:05;99903.50;;;9.60;47.64
63554;BME280;49699;48.072;7.800;2023-03-04T13:58:38;99907.22;;;9.35;48.08
63554;BME280;49699;48.072;7.800;2023-03-04T14:01:04;99900.31;;;9.34;47.96
63554;BME280;49699;48.072;7.800;2023-03-04T14:03:30;99898.34;;;9.21;48.46
63554;BME280;49699;48.072;7.800;2023-03-04T14:08:40;99887.97;;;9.21;48.80
63554;BME280;49699;48.072;7.800;2023-03-04T14:11:10;99888.47;;;9.10;48.31
63554;BME280;49699;48.072;7.800;2023-03-04T14:13:36;99885.69;;;8.94;48.48
63554;BME280;49699;48.072;7.800;2023-03-04T14:16:01;99890.44;;;8.85;48.75
63554;BME280;49699;48.072;7.800;2023-03-04T14:18:27;99887.72;;;8.88;49.08
63554;BME280;49699;48.072;7.800;2023-03-04T14:20:53;99885.69;;;8.94;48.56
63554;BME280;49699;48.072;7.800;2023-03-04T14:23:33;99887.72;;;8.88;48.79
63554;BME280;49699;48.072;7.800;2023-03-04T14:26:02;99880.97;;;8.84;48.85
63554;BME280;49699;48.072;7.800;2023-03-04T14:28:28;99864.53;;;8.83;49.07
63554;BME280;49699;48.072;7.800;2023-03-04T14:30:54;99877.50;;;8.83;49.17
63554;BME280;49699;48.072;7.800;2023-03-04T14:33:22;99871.28;;;8.87;48.98
63554;BME280;49699;48.072;7.800;2023-03-04T14:35:49;99864.88;;;8.76;48.88